Time;durP1;ratioP1;P1;durP2;ratioP2;P2;SDS_P1;SDS_P2;PMS_P1;PMS_P2;Temp;Humidity;BMP_temperature;BMP_pressure;BME280_temperature;BME280_humidity;BME280_pressure;Samples;Min_cycle;Max_cycle;Signal;HPM_P1;HPM_P2
2022/08/16 00:00:56;;;;;;;7.27;5.37;;;;;;;18.90;100.00;99879.72;5037608;28;20677;-71
2022/08/16 00:03:22;;;;;;;7.23;5.87;;;;;;;18.93;100.00;99881.28;5034252;28;20778;-71
2022/08/16 00:05:49;;;;;;;7.00;5.60;;;;;;;18.96;100.00;99872.28;5036671;28;20200;-71
2022/08/16 00:08:17;;;;;;;7.00;5.33;;;;;;;18.97;100.00;99877.47;5028494;28;20253;-71
2022/08/16 00:10:44;;;;;;;8.43;5.57;;;;;;;18.96;100.00;99883.72;5030454;28;20218;-71
2022/08/16 00:13:11;;;;;;;6.07;4.60;;;;;;;18.97;100.00;99884.56;5040020;28;20242;-71
2022/08/16 00:15:40;;;;;;;7.40;5.43;;;;;;;18.93;100.00;99889.22;5033064;28;20682;-71
2022/08/16 00:18:08;;;;;;;6.80;5.33;;;;;;;18.93;100.00;99889.22;5042542;28;20218;-71
2022/08/16 00:20:37;;;;;;;8.40;5.53;;;;;;;18.89;100.00;99877.19;5031501;28;20239;-71
2022/08/16 00:23:04;;;;;;;7.87;5.30;;;;;;;18.85;100.00;99888.94;5033531;28;20269;-71
2022/08/16 00:25:32;;;;;;;5.60;4.80;;;;;;;18.79;100.00;99879.63;5033589;28;20656;-70
2022/08/16 00:27:59;;;;;;;8.53;5.67;;;;;;;18.81;100.00;99874.22;5038268;28;20242;-71
2022/08/16 00:30:25;;;;;;;8.17;5.23;;;;;;;18.78;100.00;99877.94;5030509;28;20214;-71
2022/08/16 00:32:55;;;;;;;6.80;5.27;;;;;;;18.74;100.00;99873.81;5032518;28;20724;-71
2022/08/16 00:35:25;;;;;;;7.00;5.20;;;;;;;18.69;100.00;99866.22;5032844;28;20622;-71
2022/08/16 00:37:54;;;;;;;6.53;4.93;;;;;;;18.67;100.00;99869.94;5030073;28;20203;-71
2022/08/16 00:40:25;;;;;;;6.07;4.97;;;;;;;18.67;100.00;99868.13;5035858;28;20215;-71
2022/08/16 00:42:54;;;;;;;8.60;5.73;;;;;;;18.59;100.00;99875.78;5031665;28;20218;-71
2022/08/16 00:45:29;;;;;;;7.00;5.23;;;;;;;18.54;100.00;99884.03;5024558;28;20204;-70
2022/08/16 00:47:56;;;;;;;7.80;5.43;;;;;;;18.47;100.00;99900.41;5032017;28;20200;-72
2022/08/16 00:50:29;;;;;;;7.37;5.30;;;;;;;18.42;100.00;99903.38;5030802;28;20220;-71
2022/08/16 00:52:55;;;;;;;6.60;4.93;;;;;;;18.41;100.00;99901.66;5022688;28;20206;-72
2022/08/16 00:55:25;;;;;;;7.67;5.43;;;;;;;18.34;100.00;99895.97;5025597;28;20235;-69
2022/08/16 00:57:56;;;;;;;6.90;5.70;;;;;;;18.29;100.00;99900.75;5026258;28;20680;-72
2022/08/16 01:00:27;;;;;;;8.73;5.73;;;;;;;18.30;100.00;99896.31;5029525;28;20273;-72
2022/08/16 01:02:55;;;;;;;8.47;5.43;;;;;;;18.30;100.00;99899.78;5028526;28;20200;-70
2022/08/16 01:05:22;;;;;;;9.40;6.63;;;;;;;18.23;100.00;99898.53;5029181;28;20196;-71
2022/08/16 01:07:48;;;;;;;8.53;5.93;;;;;;;18.20;100.00;99898.72;5026029;28;20258;-72
2022/08/16 01:10:15;;;;;;;8.03;5.73;;;;;;;18.21;100.00;99894.31;5036026;28;20215;-70
2022/08/16 01:12:42;;;;;;;10.03;6.60;;;;;;;18.17;100.00;99907.72;5031097;28;20664;-72
2022/08/16 01:15:11;;;;;;;8.30;6.03;;;;;;;18.13;100.00;99902.75;5032453;28;20877;-71
2022/08/16 01:17:40;;;;;;;8.30;6.30;;;;;;;18.10;100.00;99908.22;5026414;28;20226;-72
2022/08/16 01:20:09;;;;;;;7.80;5.37;;;;;;;18.11;100.00;99912.56;5042061;28;20590;-72
2022/08/16 01:22:42;;;;;;;6.90;5.50;;;;;;;18.04;100.00;99909.50;5033037;28;20211;-71
2022/08/16 01:25:17;;;;;;;7.77;5.50;;;;;;;18.02;100.00;99907.94;5032460;28;20277;-72
2022/08/16 01:27:47;;;;;;;9.10;6.13;;;;;;;17.98;100.00;99900.22;5030319;28;20698;-71
2022/08/16 01:30:17;;;;;;;6.67;5.40;;;;;;;18.03;100.00;99899.91;5042232;28;20652;-72
2022/08/16 01:32:44;;;;;;;9.00;6.47;;;;;;;17.99;100.00;99906.34;5032603;28;20206;-71
2022/08/16 01:35:17;;;;;;;7.87;5.93;;;;;;;17.91;100.00;99898.94;5043156;28;20230;-71
2022/08/16 01:37:46;;;;;;;9.03;5.80;;;;;;;17.87;100.00;99905.41;5028194;28;20564;-71
2022/08/16 01:40:17;;;;;;;7.60;6.10;;;;;;;17.80;100.00;99904.09;5028010;28;20600;-72
2022/08/16 01:42:46;;;;;;;8.43;6.10;;;;;;;17.81;100.00;99905.75;5034409;28;20208;-71
2022/08/16 01:45:13;;;;;;;8.67;6.23;;;;;;;17.79;100.00;99908.50;5030277;28;20207;-72
2022/08/16 01:47:41;;;;;;;8.60;6.07;;;;;;;17.74;100.00;99915.88;5029059;28;20203;-72
2022/08/16 01:50:08;;;;;;;8.10;6.00;;;;;;;17.72;100.00;99920.41;5034789;28;20343;-71
2022/08/16 01:52:35;;;;;;;8.27;5.90;;;;;;;17.69;100.00;99915.34;5038067;28;20220;-70
2022/08/16 01:55:09;;;;;;;9.00;6.13;;;;;;;17.67;100.00;99905.84;5031963;28;20203;-71
2022/08/16 01:57:37;;;;;;;11.67;6.77;;;;;;;17.62;100.00;99911.41;5030548;28;20287;-72
2022/08/16 02:00:08;;;;;;;8.67;6.07;;;;;;;17.57;100.00;99906.47;5025517;28;20248;-72
2022/08/16 02:02:40;;;;;;;8.47;6.37;;;;;;;17.55;100.00;99904.88;5027999;28;20212;-71
2022/08/16 02:05:07;;;;;;;9.63;6.40;;;;;;;17.52;100.00;99899.81;5032750;28;20215;-72
2022/08/16 02:07:33;;;;;;;9.20;6.40;;;;;;;17.48;100.00;99907.06;5037393;28;20242;-71
2022/08/16 02:10:00;;;;;;;8.83;6.93;;;;;;;17.50;100.00;99899.94;5035767;28;20731;-70
2022/08/16 02:12:39;;;;;;;9.00;6.33;;;;;;;17.47;100.00;99905.41;5032354;28;20227;-72
2022/08/16 02:15:07;;;;;;;7.90;6.17;;;;;;;17.47;100.00;99908.03;5033574;28;20199;-72
2022/08/16 02:17:35;;;;;;;8.63;6.20;;;;;;;17.48;100.00;99896.53;5035256;28;20665;-72
2022/08/16 02:20:02;;;;;;;8.93;6.13;;;;;;;17.44;100.00;99896.84;5030536;28;20224;-71
2022/08/16 02:22:29;;;;;;;10.27;6.67;;;;;;;17.42;100.00;99904.84;5037693;28;20212;-72
2022/08/16 02:24:55;;;;;;;9.70;6.83;;;;;;;17.41;100.00;99911.91;5030937;28;20204;-71
2022/08/16 02:27:22;;;;;;;8.97;6.00;;;;;;;17.39;100.00;99905.03;5046452;28;20205;-72
2022/08/16 02:29:49;;;;;;;7.27;5.83;;;;;;;17.38;100.00;99906.00;5033603;28;20208;-71
2022/08/16 02:32:17;;;;;;;9.70;7.30;;;;;;;17.30;100.00;99910.94;5035069;28;20188;-72
2022/08/16 02:34:44;;;;;;;9.57;6.53;;;;;;;17.28;100.00;99908.38;5037970;28;20624;-71
2022/08/16 02:37:11;;;;;;;9.17;6.80;;;;;;;17.30;100.00;99909.13;5034541;28;20644;-71
2022/08/16 02:39:38;;;;;;;8.90;6.50;;;;;;;17.28;100.00;99912.81;5041501;28;20231;-69
2022/08/16 02:42:05;;;;;;;8.77;7.17;;;;;;;17.17;100.00;99914.38;5040108;28;20568;-71
2022/08/16 02:44:32;;;;;;;9.07;6.07;;;;;;;17.13;100.00;99925.19;5033777;28;20188;-71
2022/08/16 02:47:00;;;;;;;9.20;6.60;;;;;;;17.18;100.00;99923.97;5039126;28;20281;-72
2022/08/16 02:49:28;;;;;;;9.30;6.70;;;;;;;17.13;100.00;99923.41;5031281;28;20638;-71
2022/08/16 02:51:55;;;;;;;8.37;6.00;;;;;;;17.13;100.00;99928.69;5035069;28;20206;-71
2022/08/16 02:54:21;;;;;;;8.17;6.60;;;;;;;17.08;100.00;99928.13;5034070;28;20695;-72
2022/08/16 02:56:49;;;;;;;10.00;7.10;;;;;;;17.09;100.00;99921.91;5033673;28;20211;-72
2022/08/16 02:59:16;;;;;;;8.93;6.60;;;;;;;17.08;100.00;99927.25;5045945;28;20219;-71
2022/08/16 03:01:43;;;;;;;9.47;6.50;;;;;;;17.06;100.00;99932.63;5035342;28;20222;-70
2022/08/16 03:04:20;;;;;;;11.87;7.13;;;;;;;17.11;100.00;99930.53;5023994;28;20303;-72
2022/08/16 03:06:46;;;;;;;9.27;6.50;;;;;;;16.99;100.00;99933.97;5039793;28;20676;-72
2022/08/16 03:09:20;;;;;;;8.83;6.87;;;;;;;17.01;100.00;99937.38;5039146;28;20211;-72
2022/08/16 03:11:51;;;;;;;8.47;6.93;;;;;;;16.97;100.00;99941.13;5016922;28;20236;-71
2022/08/16 03:14:18;;;;;;;9.23;6.70;;;;;;;16.95;100.00;99948.28;5019752;28;20227;-71
2022/08/16 03:16:44;;;;;;;7.17;5.90;;;;;;;16.86;100.00;99954.13;5029233;28;20208;-72
2022/08/16 03:19:11;;;;;;;8.50;6.40;;;;;;;16.88;100.00;99945.19;5027737;28;20270;-72
2022/08/16 03:21:39;;;;;;;8.27;6.43;;;;;;;16.96;100.00;99952.63;5028696;28;20684;-72
2022/08/16 03:24:09;;;;;;;9.00;6.43;;;;;;;16.95;100.00;99958.81;5046778;28;20208;-71
2022/08/16 03:26:35;;;;;;;9.30;6.70;;;;;;;16.95;100.00;99953.53;5042572;28;20967;-72
2022/08/16 03:29:02;;;;;;;8.73;6.17;;;;;;;16.82;100.00;99967.44;5033853;28;20220;-70
2022/08/16 03:31:29;;;;;;;8.23;6.63;;;;;;;16.84;100.00;99955.06;5028719;28;20642;-72
2022/08/16 03:33:55;;;;;;;9.53;6.80;;;;;;;16.92;100.00;99961.63;5029716;28;20200;-71
2022/08/16 03:36:24;;;;;;;8.47;6.73;;;;;;;16.89;100.00;99967.94;5032011;28;20196;-70
2022/08/16 03:38:56;;;;;;;8.10;6.43;;;;;;;16.81;100.00;99965.75;5031356;28;20281;-72
2022/08/16 03:41:25;;;;;;;9.00;6.57;;;;;;;16.84;100.00;99962.13;5028359;28;20214;-71
2022/08/16 03:43:53;;;;;;;10.40;6.53;;;;;;;16.80;100.00;99971.97;5028596;28;20219;-72
2022/08/16 03:46:22;;;;;;;8.23;5.90;;;;;;;16.80;100.00;99973.75;5030597;28;20246;-72
2022/08/16 03:48:49;;;;;;;8.43;6.17;;;;;;;16.81;100.00;99971.00;5029825;28;20335;-72
2022/08/16 03:51:18;;;;;;;8.37;6.40;;;;;;;16.84;100.00;99976.13;5028303;28;20200;-72
2022/08/16 03:53:51;;;;;;;9.43;6.43;;;;;;;16.75;100.00;99974.03;5028650;28;20200;-70
2022/08/16 03:56:19;;;;;;;8.80;6.73;;;;;;;16.76;100.00;99974.88;5028621;28;20773;-71
2022/08/16 03:58:49;;;;;;;8.40;6.53;;;;;;;16.76;100.00;99973.13;5028675;28;20711;-71
2022/08/16 04:01:15;;;;;;;9.13;6.40;;;;;;;16.72;100.00;99976.84;5028929;28;20258;-70
2022/08/16 04:03:42;;;;;;;8.23;6.13;;;;;;;16.70;100.00;99985.81;5027315;28;20281;-72
2022/08/16 04:06:09;;;;;;;8.23;6.00;;;;;;;16.73;100.00;99972.47;5028576;28;20680;-72
2022/08/16 04:08:35;;;;;;;8.73;6.50;;;;;;;16.78;100.00;99975.63;5033952;28;20220;-70
2022/08/16 04:11:02;;;;;;;10.53;6.83;;;;;;;16.77;100.00;99979.22;5028343;28;20684;-72
2022/08/16 04:13:30;;;;;;;10.67;7.27;;;;;;;16.81;100.00;99983.34;5029341;28;20188;-72
2022/08/16 04:16:01;;;;;;;11.63;7.50;;;;;;;16.74;100.00;99980.22;5030382;28;20207;-72
2022/08/16 04:18:29;;;;;;;10.67;6.63;;;;;;;16.86;100.00;99988.34;5029171;28;20641;-71
2022/08/16 04:20:57;;;;;;;8.70;6.87;;;;;;;16.86;100.00;99991.00;5028569;28;20203;-71
2022/08/16 04:23:26;;;;;;;11.83;7.03;;;;;;;16.86;100.00;99991.00;5038839;28;20236;-72
2022/08/16 04:25:54;;;;;;;8.53;6.30;;;;;;;16.93;100.00;99990.50;5049832;28;20579;-72
2022/08/16 04:28:20;;;;;;;9.07;6.63;;;;;;;17.03;100.00;99990.78;5027723;28;20211;-72
2022/08/16 04:30:48;;;;;;;7.93;5.77;;;;;;;17.10;100.00;99986.81;5028227;28;20200;-71
2022/08/16 04:33:15;;;;;;;10.73;7.70;;;;;;;17.13;100.00;99989.25;5027872;28;20569;-71
2022/08/16 04:35:44;;;;;;;10.07;6.77;;;;;;;17.15;100.00;99987.38;5027533;28;20202;-71
2022/08/16 04:38:11;;;;;;;13.43;7.53;;;;;;;17.16;100.00;99994.31;5028796;28;20235;-72
2022/08/16 04:40:42;;;;;;;10.87;7.83;;;;;;;17.24;100.00;99991.22;5032459;28;20196;-70
2022/08/16 04:43:10;;;;;;;11.17;7.17;;;;;;;17.30;100.00;100000.50;5030464;28;20239;-70
2022/08/16 04:45:39;;;;;;;11.00;7.83;;;;;;;17.37;100.00;100002.63;5028260;28;20204;-72
2022/08/16 04:48:11;;;;;;;9.33;6.30;;;;;;;17.41;100.00;100004.16;5026988;28;20576;-72
2022/08/16 04:50:53;;;;;;;11.30;7.47;;;;;;;17.46;100.00;100006.47;5036749;28;20714;-70
2022/08/16 04:53:21;;;;;;;10.60;7.07;;;;;;;17.45;100.00;100007.44;5038346;28;20381;-72
2022/08/16 04:55:51;;;;;;;9.53;6.83;;;;;;;17.44;100.00;100012.78;5040722;28;20658;-72
2022/08/16 04:58:18;;;;;;;8.40;6.47;;;;;;;17.46;100.00;100010.91;5034748;28;20623;-71
2022/08/16 05:00:45;;;;;;;10.77;7.90;;;;;;;17.53;100.00;100007.75;5031704;28;20206;-71
2022/08/16 05:03:17;;;;;;;9.77;7.27;;;;;;;17.56;100.00;100014.63;5028277;28;20215;-71
2022/08/16 05:05:47;;;;;;;9.90;6.87;;;;;;;17.60;100.00;100018.75;5033972;28;20199;-71
2022/08/16 05:08:18;;;;;;;9.07;6.33;;;;;;;17.67;100.00;100019.19;5028303;28;20211;-72
2022/08/16 05:10:49;;;;;;;8.23;6.10;;;;;;;17.76;100.00;100011.56;5026941;28;20195;-71
2022/08/16 05:13:17;;;;;;;9.83;6.13;;;;;;;17.79;100.00;100010.50;5026655;28;20199;-71
2022/08/16 05:15:44;;;;;;;9.37;6.53;;;;;;;17.81;100.00;100020.94;5026628;28;20291;-72
2022/08/16 05:18:11;;;;;;;10.73;7.17;;;;;;;17.84;100.00;100018.09;5027006;28;20203;-72
2022/08/16 05:20:47;;;;;;;10.47;6.33;;;;;;;17.85;100.00;100023.25;5028096;28;20298;-72
2022/08/16 05:23:15;;;;;;;9.50;6.37;;;;;;;17.85;100.00;100022.41;5022010;28;20300;-72
2022/08/16 05:25:42;;;;;;;7.87;6.70;;;;;;;17.84;100.00;100021.59;5022186;28;20211;-72
2022/08/16 05:28:10;;;;;;;8.27;6.73;;;;;;;17.90;100.00;100023.81;5023230;28;20292;-72
2022/08/16 05:30:39;;;;;;;10.20;6.80;;;;;;;18.00;100.00;100026.72;5023742;28;20228;-70
2022/08/16 05:33:13;;;;;;;8.70;6.57;;;;;;;18.05;100.00;100031.69;5032301;28;20202;-71
2022/08/16 05:35:40;;;;;;;8.23;6.40;;;;;;;18.08;100.00;100034.97;5031680;28;20199;-72
2022/08/16 05:38:12;;;;;;;9.47;7.40;;;;;;;18.14;100.00;100038.97;5033540;28;20295;-71
2022/08/16 05:40:38;;;;;;;8.03;6.03;;;;;;;18.23;100.00;100037.53;5027480;28;20924;-71
2022/08/16 05:43:05;;;;;;;7.40;5.83;;;;;;;18.28;100.00;100044.16;5029726;28;20747;-72
2022/08/16 05:45:32;;;;;;;9.37;7.07;;;;;;;18.35;100.00;100034.88;5031352;28;20196;-72
2022/08/16 05:48:03;;;;;;;9.67;6.80;;;;;;;18.41;100.00;100036.25;5029348;28;20288;-72
2022/08/16 05:50:43;;;;;;;9.57;6.80;;;;;;;18.49;100.00;100038.38;5028965;28;20207;-71
2022/08/16 05:53:11;;;;;;;9.50;6.27;;;;;;;18.54;100.00;100042.41;5029401;28;20214;-72
2022/08/16 05:55:52;;;;;;;8.77;6.50;;;;;;;18.67;100.00;100045.03;5030732;28;20222;-72
2022/08/16 05:58:18;;;;;;;9.27;6.53;;;;;;;18.75;100.00;100041.88;5032635;28;20202;-71
2022/08/16 06:00:45;;;;;;;8.30;5.87;;;;;;;18.79;100.00;100047.78;5032583;28;20204;-71
2022/08/16 06:03:11;;;;;;;9.17;6.67;;;;;;;18.89;100.00;100057.63;5030167;28;20294;-71
2022/08/16 06:05:54;;;;;;;8.77;6.30;;;;;;;18.98;100.00;100061.44;5028650;28;20208;-71
2022/08/16 06:08:22;;;;;;;8.47;6.23;;;;;;;19.01;100.00;100058.53;5035505;28;20305;-71
2022/08/16 06:10:49;;;;;;;9.27;6.53;;;;;;;19.07;100.00;100066.06;5029701;28;20210;-71
2022/08/16 06:13:15;;;;;;;8.00;5.77;;;;;;;19.19;100.00;100072.28;5028907;28;20291;-70
2022/08/16 06:15:43;;;;;;;8.67;5.77;;;;;;;19.27;100.00;100071.72;5033288;28;20204;-72
2022/08/16 06:18:10;;;;;;;10.23;6.30;;;;;;;19.38;100.00;100074.44;5045649;28;20200;-72
2022/08/16 06:20:36;;;;;;;9.57;6.30;;;;;;;19.46;100.00;100080.03;5030349;28;20279;-70
2022/08/16 06:23:25;;;;;;;8.43;6.43;;;;;;;19.57;100.00;100075.75;5034984;28;20192;-68
2022/08/16 06:25:57;;;;;;;9.03;6.30;;;;;;;19.62;100.00;100074.47;5029298;28;20222;-72
2022/08/16 06:28:28;;;;;;;7.87;5.90;;;;;;;19.71;100.00;100085.34;5027356;28;20215;-71
2022/08/16 06:30:55;;;;;;;8.43;5.93;;;;;;;19.79;100.00;100088.31;5025947;28;20208;-71
2022/08/16 06:33:21;;;;;;;7.83;5.80;;;;;;;19.88;100.00;100094.72;5034021;28;20199;-72
2022/08/16 06:35:49;;;;;;;8.67;6.33;;;;;;;19.93;100.00;100088.13;5044819;28;20196;-71
2022/08/16 06:38:15;;;;;;;7.33;5.17;;;;;;;20.05;100.00;100081.06;5044938;28;20412;-71
2022/08/16 06:40:44;;;;;;;9.10;6.90;;;;;;;20.18;100.00;100078.38;5064852;23;20266;-72
2022/08/16 06:43:10;;;;;;;6.70;6.00;;;;;;;20.24;100.00;100080.53;5046686;28;20191;-71
2022/08/16 06:45:46;;;;;;;8.37;6.27;;;;;;;20.33;100.00;100086.94;5047995;28;20207;-71
2022/08/16 06:48:24;;;;;;;7.50;5.93;;;;;;;20.44;100.00;100089.63;5050351;28;20269;-71
2022/08/16 06:50:51;;;;;;;8.70;6.37;;;;;;;20.55;100.00;100092.31;5033656;28;20247;-71
2022/08/16 06:53:18;;;;;;;8.10;5.73;;;;;;;20.61;100.00;100102.47;5024044;28;20192;-71
2022/08/16 06:55:58;;;;;;;7.47;6.00;;;;;;;20.71;100.00;100099.09;5024106;28;20611;-72
2022/08/16 06:58:26;;;;;;;6.40;5.47;;;;;;;20.78;100.00;100106.47;5022532;28;20637;-72
2022/08/16 07:01:01;;;;;;;7.47;6.10;;;;;;;20.86;100.00;100105.88;5027789;28;20702;-71
2022/08/16 07:03:31;;;;;;;7.37;5.97;;;;;;;20.86;100.00;100110.31;5025925;28;20204;-71
2022/08/16 07:05:58;;;;;;;7.60;5.70;;;;;;;20.96;100.00;100108.63;5027407;28;20202;-71
2022/08/16 07:08:30;;;;;;;7.43;5.77;;;;;;;21.07;100.00;100107.81;5024520;28;20234;-72
2022/08/16 07:10:58;;;;;;;7.20;6.13;;;;;;;21.18;100.00;100105.16;5025436;28;20266;-72
2022/08/16 07:13:29;;;;;;;7.27;6.07;;;;;;;21.23;100.00;100107.44;5028974;28;20397;-71
2022/08/16 07:15:57;;;;;;;8.90;5.87;;;;;;;21.36;100.00;100108.16;5025096;28;20300;-71
2022/08/16 07:18:26;;;;;;;6.77;6.03;;;;;;;21.45;100.00;100110.06;5048263;28;20235;-71
2022/08/16 07:20:53;;;;;;;9.00;5.83;;;;;;;21.58;100.00;100111.78;5036055;28;20230;-71
2022/08/16 07:23:21;;;;;;;7.90;5.80;;;;;;;21.62;100.00;100105.25;5044260;28;20567;-71
2022/08/16 07:25:55;;;;;;;7.47;5.70;;;;;;;21.65;100.00;100108.53;5042066;28;20206;-71
2022/08/16 07:28:24;;;;;;;7.15;5.68;;;;;;;21.77;100.00;100116.44;5038237;28;20544;-71
2022/08/16 07:30:52;;;;;;;7.67;6.00;;;;;;;21.85;100.00;100121.97;5050652;28;20216;-71
2022/08/16 07:33:45;;;;;;;9.67;5.87;;;;;;;21.85;100.00;100124.63;5024728;28;20212;-71
2022/08/16 07:36:13;;;;;;;7.03;5.80;;;;;;;21.98;100.00;100132.41;5023124;28;20204;-71
2022/08/16 07:38:45;;;;;;;6.70;5.63;;;;;;;22.02;100.00;100131.19;5023358;28;20574;-71
2022/08/16 07:41:13;;;;;;;5.87;5.27;;;;;;;22.13;100.00;100123.22;5026830;28;20213;-71
2022/08/16 07:43:46;;;;;;;6.90;5.70;;;;;;;22.26;100.00;100134.47;5041851;28;20208;-71
2022/08/16 07:46:14;;;;;;;8.80;5.63;;;;;;;22.31;100.00;100127.00;5045091;28;20212;-71
2022/08/16 07:48:41;;;;;;;8.65;5.30;;;;;;;22.40;100.00;100137.84;5016462;28;20277;-72
2022/08/16 07:51:08;;;;;;;7.07;5.72;;;;;;;22.42;100.00;100136.72;5047324;28;20202;-71
2022/08/16 07:53:34;;;;;;;7.45;6.07;;;;;;;22.62;100.00;100144.84;5026919;28;20210;-71
2022/08/16 07:56:03;;;;;;;6.70;5.63;;;;;;;22.66;100.00;100139.13;5051437;28;20213;-72
2022/08/16 07:58:38;;;;;;;6.82;5.18;;;;;;;22.65;100.00;100157.88;5040126;28;20208;-72
2022/08/16 08:01:12;;;;;;;8.23;6.00;;;;;;;22.78;100.00;100149.69;5025056;28;20255;-72
2022/08/16 08:03:44;;;;;;;6.90;6.00;;;;;;;22.89;100.00;100157.59;5042160;28;20202;-71
2022/08/16 08:06:11;;;;;;;8.18;6.10;;;;;;;22.94;100.00;100160.72;5030263;28;20628;-71
2022/08/16 08:08:38;;;;;;;7.45;6.20;;;;;;;22.97;100.00;100171.09;5025401;28;20204;-71
2022/08/16 08:11:05;;;;;;;9.18;6.30;;;;;;;23.06;100.00;100172.16;5030005;28;20604;-72
2022/08/16 08:13:32;;;;;;;6.55;5.63;;;;;;;23.14;100.00;100179.47;5032023;28;20691;-71
2022/08/16 08:15:58;;;;;;;9.45;5.78;;;;;;;23.19;99.02;100174.59;5026305;28;20611;-71
2022/08/16 08:18:28;;;;;;;7.05;5.82;;;;;;;23.28;96.85;100173.78;5031126;28;20563;-71
2022/08/16 08:20:55;;;;;;;7.72;6.07;;;;;;;23.41;96.68;100173.56;5039913;28;20212;-71
2022/08/16 08:23:22;;;;;;;8.02;5.93;;;;;;;23.49;96.30;100181.72;5024720;28;20640;-71
2022/08/16 08:25:50;;;;;;;8.40;5.65;;;;;;;23.57;95.85;100183.69;5042479;28;20215;-71
2022/08/16 08:28:17;;;;;;;7.63;5.95;;;;;;;23.73;93.51;100176.06;5024794;28;20985;-72
2022/08/16 08:30:44;;;;;;;7.78;5.88;;;;;;;23.84;93.29;100184.94;5025051;28;20269;-72
2022/08/16 08:33:11;;;;;;;7.35;6.10;;;;;;;23.89;91.66;100183.53;5023146;28;20223;-71
2022/08/16 08:35:42;;;;;;;6.50;5.80;;;;;;;23.94;93.92;100177.78;5026201;28;20188;-71
2022/08/16 08:38:10;;;;;;;6.30;5.22;;;;;;;24.10;93.08;100180.78;5026662;28;20234;-72
2022/08/16 08:40:46;;;;;;;8.07;6.00;;;;;;;24.19;91.43;100189.75;5026154;28;20732;-71
2022/08/16 08:43:13;;;;;;;6.93;6.22;;;;;;;24.28;87.08;100190.75;5027396;28;20204;-71
2022/08/16 08:45:44;;;;;;;6.15;5.47;;;;;;;24.37;89.50;100193.41;5044558;28;20215;-71
2022/08/16 08:48:11;;;;;;;9.20;5.45;;;;;;;24.44;87.96;100184.88;5025398;28;20199;-72
2022/08/16 08:50:37;;;;;;;6.22;5.32;;;;;;;24.54;84.64;100189.25;5017421;28;20319;-71
2022/08/16 08:53:06;;;;;;;10.05;5.90;;;;;;;24.66;85.50;100186.41;5023120;28;20606;-72
2022/08/16 08:55:35;;;;;;;8.15;5.82;;;;;;;24.77;88.31;100183.59;5012616;28;20277;-70
2022/08/16 08:58:01;;;;;;;6.40;5.53;;;;;;;24.88;84.95;100188.78;5041006;28;20714;-70
2022/08/16 09:00:38;;;;;;;8.13;5.50;;;;;;;24.98;85.38;100191.44;5029553;28;20208;-70
2022/08/16 09:03:05;;;;;;;8.38;5.60;;;;;;;25.00;84.56;100192.13;5020817;28;20207;-71
2022/08/16 09:05:35;;;;;;;7.15;5.72;;;;;;;25.08;86.46;100186.06;5027335;28;20222;-71
2022/08/16 09:08:02;;;;;;;9.10;5.53;;;;;;;25.22;85.49;100182.91;5039185;28;20200;-70
2022/08/16 09:10:41;;;;;;;6.28;5.20;;;;;;;25.31;82.42;100197.25;5023984;28;20314;-70
2022/08/16 09:13:09;;;;;;;6.57;5.45;;;;;;;25.42;85.79;100194.41;5019307;28;20203;-71
2022/08/16 09:15:42;;;;;;;6.55;5.72;;;;;;;25.51;80.78;100190.84;5023570;28;20220;-71
2022/08/16 09:18:09;;;;;;;5.82;4.85;;;;;;;25.60;75.06;100199.78;5028860;28;20196;-71
2022/08/16 09:20:35;;;;;;;5.68;4.82;;;;;;;25.73;79.07;100196.78;5031273;28;20241;-71
2022/08/16 09:23:02;;;;;;;5.05;4.50;;;;;;;25.82;74.70;100197.72;5054515;28;20558;-71
2022/08/16 09:25:35;;;;;;;4.95;4.45;;;;;;;25.87;72.43;100200.78;5029982;28;20231;-71
2022/08/16 09:28:06;;;;;;;5.55;4.60;;;;;;;25.98;69.80;100202.41;5025028;28;20306;-70
2022/08/16 09:30:33;;;;;;;5.35;4.85;;;;;;;26.06;67.69;100205.19;5026179;28;20228;-71
2022/08/16 09:33:00;;;;;;;5.93;4.90;;;;;;;26.11;69.88;100200.25;5027186;28;20196;-71
2022/08/16 09:35:27;;;;;;;4.97;4.55;;;;;;;26.17;68.49;100201.47;5030842;28;20850;-71
2022/08/16 09:37:55;;;;;;;7.30;5.07;;;;;;;26.24;66.11;100200.72;5053806;28;20580;-71
2022/08/16 09:40:23;;;;;;;6.30;5.10;;;;;;;26.29;64.61;100200.25;5028656;28;20231;-71
2022/08/16 09:42:52;;;;;;;5.05;4.55;;;;;;;26.38;63.14;100199.31;5029374;28;20211;-71
2022/08/16 09:45:20;;;;;;;5.70;5.00;;;;;;;26.43;62.40;100193.53;5024879;28;20250;-71
2022/08/16 09:47:53;;;;;;;6.85;4.90;;;;;;;26.53;68.79;100190.78;5030116;28;20270;-71
2022/08/16 09:50:19;;;;;;;5.07;4.40;;;;;;;26.57;66.21;100195.66;5028874;28;20223;-71
2022/08/16 09:52:46;;;;;;;4.75;4.25;;;;;;;26.60;63.76;100198.03;5027609;28;20207;-71
2022/08/16 09:55:13;;;;;;;4.63;4.05;;;;;;;26.71;64.77;100193.47;5029152;28;20692;-71
2022/08/16 09:57:41;;;;;;;4.43;4.03;;;;;;;26.87;60.52;100196.25;5030189;28;20196;-71
2022/08/16 10:00:11;;;;;;;4.25;3.85;;;;;;;26.92;60.47;100190.44;5025314;28;20270;-71
2022/08/16 10:02:42;;;;;;;5.38;3.90;;;;;;;26.92;60.14;100193.94;5026958;28;20212;-71
2022/08/16 10:05:10;;;;;;;4.80;4.20;;;;;;;27.05;63.07;100193.50;5021056;28;20228;-71
2022/08/16 10:07:36;;;;;;;4.72;4.30;;;;;;;27.13;63.79;100185.53;5025405;28;20211;-71
2022/08/16 10:10:03;;;;;;;9.40;4.43;;;;;;;27.23;59.15;100192.63;5021967;28;20242;-71
2022/08/16 10:15:15;;;;;;;4.50;4.10;;;;;;;27.38;57.11;100189.22;5012799;28;20203;-71
2022/08/16 10:17:44;;;;;;;4.43;3.63;;;;;;;27.38;55.98;100196.41;5023457;28;20203;-71
2022/08/16 10:20:11;;;;;;;5.03;4.50;;;;;;;27.40;54.91;100191.72;5026238;28;20216;-71
2022/08/16 10:22:37;;;;;;;4.75;3.67;;;;;;;27.56;59.01;100185.63;5029854;28;20206;-71
2022/08/16 10:25:05;;;;;;;3.97;3.58;;;;;;;27.71;57.30;100177.81;5028889;28;20227;-71
2022/08/16 10:27:32;;;;;;;4.95;4.03;;;;;;;27.77;56.42;100179.84;5030945;28;20207;-71
2022/08/16 10:29:59;;;;;;;4.82;3.65;;;;;;;27.70;53.11;100179.66;5031208;28;20231;-71
2022/08/16 10:32:25;;;;;;;4.32;3.92;;;;;;;27.87;55.61;100171.66;5032927;28;20195;-71
2022/08/16 10:34:53;;;;;;;4.88;3.70;;;;;;;27.90;54.43;100172.19;5027559;28;20592;-71
2022/08/16 10:37:20;;;;;;;4.25;3.85;;;;;;;27.82;53.00;100180.19;5027943;28;20199;-71
2022/08/16 10:39:46;;;;;;;4.63;3.88;;;;;;;27.86;53.76;100178.00;5025075;28;20224;-71
2022/08/16 10:42:13;;;;;;;4.00;3.60;;;;;;;27.95;54.09;100169.88;5030305;28;20204;-71
2022/08/16 10:44:39;;;;;;;5.38;3.90;;;;;;;28.13;53.45;100174.28;5029538;28;20200;-71
2022/08/16 10:47:06;;;;;;;4.65;3.58;;;;;;;28.14;51.34;100168.75;5036343;28;20215;-71
2022/08/16 10:49:33;;;;;;;3.67;3.30;;;;;;;28.12;52.81;100160.00;5029230;28;20227;-71
2022/08/16 10:52:01;;;;;;;4.22;3.40;;;;;;;28.22;53.04;100161.72;5034172;28;20200;-71
2022/08/16 10:54:28;;;;;;;4.68;3.42;;;;;;;28.36;48.39;100176.31;5029133;28;20567;-71
2022/08/16 10:56:54;;;;;;;4.63;3.60;;;;;;;28.38;53.14;100163.56;5030146;28;20207;-71
2022/08/16 10:59:21;;;;;;;3.63;3.10;;;;;;;28.46;51.49;100168.91;5026336;28;20635;-71
2022/08/16 11:01:48;;;;;;;3.60;3.30;;;;;;;28.52;53.16;100157.53;5032025;28;20211;-71
2022/08/16 11:04:15;;;;;;;3.75;3.10;;;;;;;28.30;51.04;100170.59;5029526;28;20208;-71
2022/08/16 11:06:41;;;;;;;4.55;3.38;;;;;;;28.46;51.51;100163.56;5023972;28;20212;-71
2022/08/16 11:09:09;;;;;;;3.78;3.47;;;;;;;28.57;51.68;100160.59;5029448;28;20224;-71
2022/08/16 11:11:36;;;;;;;3.97;3.10;;;;;;;28.69;50.19;100167.28;5030628;28;20200;-71
2022/08/16 11:14:02;;;;;;;5.68;3.80;;;;;;;28.58;51.26;100170.28;5033000;28;20207;-71
2022/08/16 11:16:29;;;;;;;4.60;3.05;;;;;;;28.51;49.58;100164.75;5037089;28;20192;-71
2022/08/16 11:18:56;;;;;;;3.50;3.20;;;;;;;28.69;49.50;100177.19;5030182;28;20564;-71
2022/08/16 11:21:24;;;;;;;3.47;2.95;;;;;;;28.92;48.40;100176.44;5029684;28;20188;-71
2022/08/16 11:23:52;;;;;;;3.78;3.22;;;;;;;28.54;49.50;100179.69;5035773;28;20226;-71
2022/08/16 11:26:20;;;;;;;3.58;3.25;;;;;;;28.35;50.02;100174.63;5030745;28;20723;-71
2022/08/16 11:28:47;;;;;;;4.28;3.83;;;;;;;28.29;50.07;100185.00;5031673;28;20202;-71
2022/08/16 11:31:14;;;;;;;4.00;3.42;;;;;;;28.18;52.64;100174.63;5027975;28;20633;-71